Time;durP1;ratioP1;P1;durP2;ratioP2;P2;SDS_P1;SDS_P2;PMS_P1;PMS_P2;Temp;Humidity;BMP_temperature;BMP_pressure;BME280_temperature;BME280_humidity;BME280_pressure;Samples;Min_cycle;Max_cycle;Signal;HPM_P1;HPM_P2
2023/05/25 00:00:26;;;;;;;21.90;11.80;;;;;;;9.68;100.00;100895.24;181125;1265;43003;-62
2023/05/25 00:04:49;;;;;;;19.60;11.20;;;;;;;9.72;100.00;100894.91;180972;1267;43618;-62
2023/05/25 00:08:54;;;;;;;14.60;11.50;;;;;;;9.73;100.00;100894.85;180950;1267;43824;-62
2023/05/25 00:12:57;;;;;;;15.90;9.10;;;;;;;9.69;100.00;100900.14;180963;1267;57951;-62
2023/05/25 00:17:02;;;;;;;18.10;10.70;;;;;;;9.34;100.00;100907.91;181012;1266;44100;-62
2023/05/25 00:21:06;;;;;;;16.00;11.10;;;;;;;9.15;100.00;100908.16;180991;1267;43073;-62
2023/05/25 00:25:10;;;;;;;15.40;10.70;;;;;;;9.07;100.00;100906.02;180903;1266;43143;-61
2023/05/25 00:29:13;;;;;;;24.60;13.10;;;;;;;9.02;100.00;100914.11;181074;1266;43760;-61
2023/05/25 00:33:23;;;;;;;17.00;11.50;;;;;;;8.94;100.00;100911.09;181008;1267;58176;-61
2023/05/25 00:37:26;;;;;;;21.40;11.90;;;;;;;8.92;100.00;100905.92;180986;1267;43697;-62
2023/05/25 00:41:32;;;;;;;13.90;10.50;;;;;;;8.85;100.00;100904.21;181017;1265;43462;-62
2023/05/25 00:45:39;;;;;;;20.30;12.00;;;;;;;8.66;100.00;100904.55;181083;1265;43831;-61
2023/05/25 00:49:43;;;;;;;16.80;11.70;;;;;;;8.67;100.00;100903.03;181082;1265;43065;-62
2023/05/25 00:53:46;;;;;;;16.20;11.70;;;;;;;8.76;100.00;100902.30;181060;1267;57038;-62
2023/05/25 00:57:50;;;;;;;18.60;11.70;;;;;;;8.84;100.00;100896.12;181050;1267;43734;-62
2023/05/25 01:01:54;;;;;;;27.10;12.70;;;;;;;8.94;100.00;100897.45;180950;1267;43390;-62
2023/05/25 01:05:58;;;;;;;17.00;12.80;;;;;;;9.01;100.00;100894.89;180976;1267;43077;-62
2023/05/25 01:10:08;;;;;;;14.40;10.20;;;;;;;9.00;100.00;100904.29;180947;1267;42975;-62
2023/05/25 01:14:12;;;;;;;31.60;11.80;;;;;;;8.78;100.00;100908.73;180922;1267;58117;-62
2023/05/25 01:18:16;;;;;;;18.00;9.80;;;;;;;8.60;100.00;100914.46;181000;1267;43452;-62
2023/05/25 01:22:41;;;;;;;22.10;9.70;;;;;;;8.58;100.00;100914.94;180918;1267;43055;-61
2023/05/25 01:27:06;;;;;;;16.90;10.20;;;;;;;8.60;100.00;100914.32;181011;1267;43867;-62
2023/05/25 01:31:09;;;;;;;19.10;11.10;;;;;;;8.54;100.00;100906.91;181066;1265;43898;-61
2023/05/25 01:35:23;;;;;;;17.10;10.50;;;;;;;8.56;100.00;100908.55;180980;1266;58052;-62
2023/05/25 01:39:26;;;;;;;19.30;11.20;;;;;;;8.58;100.00;100913.91;181021;1265;43159;-61
2023/05/25 01:43:29;;;;;;;19.30;12.00;;;;;;;8.65;100.00;100913.48;181100;1265;43391;-62
2023/05/25 01:47:57;;;;;;;14.50;9.70;;;;;;;8.79;100.00;100920.31;181083;1265;43366;-62
2023/05/25 01:52:30;;;;;;;18.20;11.10;;;;;;;8.87;100.00;100921.44;181016;1267;43112;-62
2023/05/25 01:56:34;;;;;;;20.60;10.90;;;;;;;8.85;100.00;100916.80;181088;1265;59268;-61
2023/05/25 02:00:39;;;;;;;18.60;13.80;;;;;;;8.80;100.00;100919.23;181052;1267;43576;-62
2023/05/25 02:04:43;;;;;;;30.00;11.10;;;;;;;8.73;100.00;100925.70;180920;1267;43356;-62
2023/05/25 02:08:45;;;;;;;15.10;9.40;;;;;;;8.65;100.00;100918.42;180951;1267;43050;-62
2023/05/25 02:13:01;;;;;;;16.30;10.60;;;;;;;8.63;100.00;100921.88;180983;1265;43787;-62
2023/05/25 02:17:03;;;;;;;11.70;7.90;;;;;;;8.65;100.00;100924.41;180935;1267;59255;-62
2023/05/25 02:21:16;;;;;;;15.60;10.10;;;;;;;8.62;100.00;100925.98;180907;1267;43186;-61
2023/05/25 02:25:19;;;;;;;18.30;9.20;;;;;;;8.55;100.00;100925.02;181063;1265;43733;-62
2023/05/25 02:29:22;;;;;;;21.60;11.30;;;;;;;8.45;100.00;100927.04;181056;1265;43710;-62
2023/05/25 02:33:31;;;;;;;17.50;10.10;;;;;;;8.45;100.00;100927.71;181028;1267;43796;-61
2023/05/25 02:37:34;;;;;;;26.20;14.50;;;;;;;8.55;100.00;100929.98;180974;1267;58302;-61
2023/05/25 02:41:37;;;;;;;19.90;10.50;;;;;;;8.68;100.00;100931.83;181016;1266;43890;-61
2023/05/25 02:45:40;;;;;;;18.20;9.70;;;;;;;8.79;100.00;100932.77;181028;1267;43795;-62
2023/05/25 02:49:48;;;;;;;16.40;10.60;;;;;;;8.88;100.00;100927.54;180992;1266;43131;-61
2023/05/25 02:53:51;;;;;;;19.40;11.00;;;;;;;8.99;100.00;100934.29;181005;1265;44108;-62
2023/05/25 02:57:54;;;;;;;14.30;10.80;;;;;;;9.06;100.00;100935.42;181056;1265;57930;-61
2023/05/25 03:02:06;;;;;;;14.10;9.10;;;;;;;9.10;100.00;100935.31;181022;1267;43082;-61
2023/05/25 04:05:44;;;;;;;23.00;12.10;;;;;;;9.37;100.00;100998.38;180976;1267;43373;-61
2023/05/25 04:09:47;;;;;;;16.20;12.90;;;;;;;9.52;100.00;100997.56;180995;1267;58058;-61
2023/05/25 04:13:50;;;;;;;20.40;12.70;;;;;;;9.66;100.00;101001.45;180956;1267;43110;-61
2023/05/25 04:17:53;;;;;;;28.70;13.30;;;;;;;9.82;100.00;101000.52;181005;1268;43092;-62
2023/05/25 04:21:56;;;;;;;18.00;9.90;;;;;;;10.02;100.00;101004.33;180982;1267;43189;-60
2023/05/25 04:26:00;;;;;;;18.20;11.10;;;;;;;10.25;100.00;100998.56;181015;1267;43625;-61
2023/05/25 04:30:03;;;;;;;16.70;11.60;;;;;;;10.48;100.00;101002.67;180937;1268;58453;-61
2023/05/25 04:34:08;;;;;;;19.00;11.70;;;;;;;10.76;100.00;101010.67;180885;1268;43906;-61
2023/05/25 04:38:11;;;;;;;18.50;10.90;;;;;;;10.77;100.00;101016.42;180959;1267;43184;-61
2023/05/25 04:42:15;;;;;;;15.30;10.30;;;;;;;10.66;100.00;101017.02;180938;1268;43082;-60
2023/05/25 04:46:18;;;;;;;17.00;9.10;;;;;;;10.70;100.00;101019.94;180960;1267;43088;-65
2023/05/25 04:50:22;;;;;;;16.60;10.40;;;;;;;10.76;100.00;101022.20;180992;1267;57996;-65
2023/05/25 04:54:25;;;;;;;12.40;8.30;;;;;;;10.82;100.00;101024.78;180740;1268;183882;-64
2023/05/25 04:58:28;;;;;;;15.90;10.20;;;;;;;10.90;100.00;101024.94;180965;1267;43725;-65
2023/05/25 05:02:31;;;;;;;26.60;12.00;;;;;;;10.90;100.00;101026.56;180924;1267;43984;-65
2023/05/25 05:06:35;;;;;;;19.00;10.40;;;;;;;11.06;100.00;101029.89;180978;1267;43402;-64
2023/05/25 05:10:38;;;;;;;19.90;10.20;;;;;;;11.08;100.00;101031.27;180900;1267;58459;-65
2023/05/25 05:14:41;;;;;;;19.80;11.90;;;;;;;11.18;100.00;101028.77;180894;1267;43695;-64
2023/05/25 05:18:44;;;;;;;16.20;9.80;;;;;;;11.24;100.00;101024.79;181023;1267;43237;-65
2023/05/25 05:22:48;;;;;;;18.60;10.70;;;;;;;11.53;100.00;101022.33;180982;1267;43367;-65
2023/05/25 05:26:50;;;;;;;26.60;11.20;;;;;;;11.84;100.00;101015.08;180912;1267;43052;-65
2023/05/25 05:31:00;;;;;;;20.10;12.20;;;;;;;12.09;100.00;101015.02;180983;1267;58028;-65
2023/05/25 05:35:04;;;;;;;18.30;11.50;;;;;;;12.66;100.00;101012.58;180961;1268;43147;-65
2023/05/25 05:39:07;;;;;;;16.80;11.60;;;;;;;13.47;99.96;101012.52;180951;1268;43217;-65
2023/05/25 05:43:12;;;;;;;19.20;10.50;;;;;;;13.87;93.66;101012.77;180931;1267;43474;-65
2023/05/25 05:47:15;;;;;;;18.90;11.00;;;;;;;13.90;92.11;101015.94;180907;1267;44021;-64
2023/05/25 05:51:17;;;;;;;17.80;11.50;;;;;;;13.82;92.72;101024.61;180851;1267;58044;-64
2023/05/25 05:55:22;;;;;;;19.10;10.40;;;;;;;13.90;93.51;101020.41;181027;1267;44070;-64
2023/05/25 05:59:25;;;;;;;14.30;9.50;;;;;;;13.91;93.14;101014.76;180994;1267;43076;-64
2023/05/25 06:03:28;;;;;;;20.90;11.30;;;;;;;14.08;94.69;101014.45;180940;1267;43157;-65
2023/05/25 06:07:34;;;;;;;19.30;12.50;;;;;;;14.51;93.31;101011.68;180926;1267;43662;-64
2023/05/25 06:11:38;;;;;;;14.50;10.80;;;;;;;15.13;91.39;101015.75;180958;1267;59754;-65
2023/05/25 06:15:42;;;;;;;23.70;10.40;;;;;;;15.59;87.91;101011.99;180959;1267;43979;-61
2023/05/25 06:19:48;;;;;;;16.50;10.30;;;;;;;16.13;86.05;101008.97;180978;1267;43684;-63
2023/05/25 06:23:51;;;;;;;19.00;10.80;;;;;;;16.60;83.51;101006.56;180978;1267;43403;-65
2023/05/25 06:27:54;;;;;;;19.10;10.10;;;;;;;17.03;81.10;101005.90;180883;1267;43043;-65
2023/05/25 06:31:58;;;;;;;17.10;11.10;;;;;;;17.19;80.08;101004.50;180904;1267;58041;-64
2023/05/25 06:36:01;;;;;;;14.40;10.20;;;;;;;17.40;80.05;101004.80;180998;1267;43140;-64
2023/05/25 06:40:04;;;;;;;21.40;11.80;;;;;;;17.70;79.55;101009.31;180934;1268;43885;-64
2023/05/25 06:44:08;;;;;;;23.50;10.50;;;;;;;17.92;78.84;101000.31;180904;1267;43755;-65
2023/05/25 06:48:10;;;;;;;17.10;10.70;;;;;;;18.15;76.70;100993.49;180962;1266;43918;-65
2023/05/25 06:52:13;;;;;;;12.60;8.50;;;;;;;18.38;77.02;100990.23;180969;1267;58705;-65
2023/05/25 06:56:17;;;;;;;16.40;9.10;;;;;;;18.42;75.87;100987.31;180937;1268;43408;-64
2023/05/25 07:00:20;;;;;;;13.50;9.00;;;;;;;18.62;77.21;100989.98;181014;1268;43771;-65
2023/05/25 07:04:23;;;;;;;13.90;7.10;;;;;;;18.64;77.35;100988.40;180898;1267;43937;-65
2023/05/25 07:08:26;;;;;;;17.90;9.50;;;;;;;18.66;76.62;100988.58;181002;1267;43086;-64
2023/05/25 07:12:29;;;;;;;15.30;8.80;;;;;;;18.64;76.35;100988.60;180903;1267;58447;-64
2023/05/25 07:16:33;;;;;;;17.40;7.20;;;;;;;18.42;78.04;100996.73;180967;1267;43385;-64
2023/05/25 07:20:36;;;;;;;14.00;8.70;;;;;;;18.30;78.23;101001.73;181006;1267;42983;-65
2023/05/25 07:24:39;;;;;;;12.50;7.70;;;;;;;18.23;77.79;101001.84;181006;1266;44034;-64
2023/05/25 07:28:48;;;;;;;8.70;6.20;;;;;;;18.11;77.61;101000.33;181003;1267;43564;-64
2023/05/25 07:32:51;;;;;;;12.60;6.90;;;;;;;17.65;79.02;101011.40;180859;1268;57308;-65
2023/05/25 07:36:54;;;;;;;7.70;6.80;;;;;;;17.64;78.96;101016.16;180977;1267;43723;-64
2023/05/25 07:40:57;;;;;;;9.10;5.90;;;;;;;17.80;80.27;101015.32;180990;1266;43704;-65
2023/05/25 07:45:01;;;;;;;8.10;6.10;;;;;;;17.85;78.85;101016.58;180991;1267;43768;-64
2023/05/25 07:49:05;;;;;;;11.70;6.00;;;;;;;17.87;78.71;101020.11;180895;1267;43771;-64
2023/05/25 07:53:08;;;;;;;10.10;6.80;;;;;;;17.74;79.24;101018.75;180869;1267;57944;-65
2023/05/25 07:57:11;;;;;;;10.50;7.90;;;;;;;17.69;80.17;101020.41;180988;1267;43632;-64
2023/05/25 08:01:14;;;;;;;8.60;5.50;;;;;;;17.77;80.78;101017.71;180995;1267;43433;-64
2023/05/25 08:05:17;;;;;;;8.20;5.50;;;;;;;17.88;79.88;101016.89;180997;1267;43678;-64
2023/05/25 08:09:20;;;;;;;8.90;7.10;;;;;;;18.05;79.80;101014.77;180996;1268;43131;-64
2023/05/25 08:30:17;;;;;;;9.10;6.30;;;;;;;18.76;76.81;101003.38;165706;1267;43700;-64
2023/05/25 08:34:19;;;;;;;9.50;5.70;;;;;;;18.68;73.17;101008.50;180989;1267;43474;-64
2023/05/25 08:38:24;;;;;;;14.80;7.40;;;;;;;18.75;71.56;101009.23;181017;1267;58341;-64
2023/05/25 08:42:28;;;;;;;6.90;6.00;;;;;;;18.95;74.13;101009.16;181020;1267;43060;-64
2023/05/25 08:46:31;;;;;;;7.80;5.00;;;;;;;19.01;71.22;101016.83;180892;1267;43125;-64
2023/05/25 08:50:35;;;;;;;8.20;5.80;;;;;;;18.95;70.36;101016.50;180960;1267;43122;-64
2023/05/25 08:54:39;;;;;;;7.40;5.20;;;;;;;19.00;71.66;101019.76;180968;1266;43071;-64
2023/05/25 08:58:55;;;;;;;8.10;4.90;;;;;;;19.09;70.18;101018.78;180916;1266;58608;-64
2023/05/25 09:03:32;;;;;;;5.80;5.20;;;;;;;19.04;72.04;101013.48;181018;1267;43788;-64
2023/05/25 09:07:35;;;;;;;;;;;;;;;19.24;71.87;101017.43;180913;1266;43712;-62
2023/05/25 09:11:39;;;;;;;7.70;5.10;;;;;;;19.45;73.33;101017.37;180994;1266;42822;-64
2023/05/25 09:15:45;;;;;;;7.80;5.20;;;;;;;19.69;71.82;101012.40;180956;1267;43031;-64
2023/05/25 09:19:49;;;;;;;8.50;5.50;;;;;;;19.82;70.21;101015.06;180978;1267;58119;-64
2023/05/25 09:23:52;;;;;;;9.20;5.80;;;;;;;20.00;70.14;101016.13;180942;1268;43154;-64
2023/05/25 09:27:59;;;;;;;7.10;5.50;;;;;;;20.12;70.88;101015.45;181009;1267;43054;-64
2023/05/25 09:32:26;;;;;;;7.90;4.70;;;;;;;20.28;67.98;101010.79;180959;1267;43104;-64
2023/05/25 09:36:30;;;;;;;7.50;5.20;;;;;;;20.31;67.16;101015.50;180890;1266;43667;-65
2023/05/25 09:40:36;;;;;;;6.40;4.40;;;;;;;20.42;66.32;101013.83;180988;1266;59032;-64
2023/05/25 09:44:41;;;;;;;10.90;4.70;;;;;;;20.70;65.08;101011.56;180912;1267;43071;-65
2023/05/25 09:48:44;;;;;;;5.80;5.00;;;;;;;20.80;66.47;101009.40;181002;1266;43091;-65
2023/05/25 09:52:59;;;;;;;8.00;5.90;;;;;;;20.61;66.70;101016.49;180967;1267;43480;-65
2023/05/25 09:57:04;;;;;;;12.30;5.80;;;;;;;20.43;67.31;101021.79;180906;1267;43898;-62
2023/05/25 10:01:06;;;;;;;4.20;3.80;;;;;;;20.33;68.52;101023.80;180836;1267;58482;-61
2023/05/25 10:05:09;;;;;;;6.40;4.40;;;;;;;20.25;66.97;101028.25;180994;1267;43117;-62
2023/05/25 10:09:14;;;;;;;9.40;5.30;;;;;;;20.36;67.13;101019.35;181016;1267;43222;-62
2023/05/25 10:13:23;;;;;;;7.10;4.10;;;;;;;20.56;66.01;101016.84;180914;1270;43822;-62
2023/05/25 10:17:30;;;;;;;7.40;4.80;;;;;;;20.67;66.47;101016.01;180980;1266;42955;-61
2023/05/25 10:21:36;;;;;;;7.20;4.60;;;;;;;20.79;65.16;101014.65;180966;1267;57505;-61
2023/05/25 10:25:43;;;;;;;7.10;4.30;;;;;;;20.83;66.89;101014.61;180885;1266;43572;-62
2023/05/25 10:29:48;;;;;;;5.30;3.80;;;;;;;20.70;68.12;101012.77;180869;1267;43086;-61
2023/05/25 10:33:51;;;;;;;7.50;5.10;;;;;;;20.76;67.30;101014.73;180948;1267;43102;-62
2023/05/25 10:37:55;;;;;;;12.60;5.20;;;;;;;20.70;67.34;101013.15;181016;1266;43066;-62
2023/05/25 10:42:00;;;;;;;11.80;5.40;;;;;;;20.73;66.40;101010.89;180904;1266;59197;-62
2023/05/25 10:46:05;;;;;;;8.60;6.20;;;;;;;20.79;67.25;101012.94;180914;1267;43722;-62
2023/05/25 10:50:19;;;;;;;7.90;4.80;;;;;;;20.84;66.64;101011.44;181068;1268;43690;-63
2023/05/25 10:54:27;;;;;;;6.20;4.40;;;;;;;20.93;67.04;101013.45;180932;1266;44093;-62
2023/05/25 10:58:31;;;;;;;8.30;5.10;;;;;;;21.06;67.24;101000.77;180945;1267;43184;-60
2023/05/25 11:02:49;;;;;;;7.40;4.90;;;;;;;21.18;64.27;101006.60;180988;1266;58081;-61
2023/05/25 11:07:03;;;;;;;4.60;3.70;;;;;;;21.03;64.09;100997.75;180963;1268;43501;-61
2023/05/25 11:11:05;;;;;;;7.90;4.30;;;;;;;21.04;65.79;100990.58;180992;1267;43049;-61
2023/05/25 11:15:11;;;;;;;5.70;4.50;;;;;;;21.29;67.08;100984.81;180994;1267;43161;-62
2023/05/25 11:19:14;;;;;;;7.70;4.00;;;;;;;21.40;63.83;100986.09;180859;1268;43402;-61
2023/05/25 11:23:23;;;;;;;5.00;4.30;;;;;;;21.49;62.97;100985.07;180904;1268;60001;-61
2023/05/25 11:27:29;;;;;;;9.70;5.30;;;;;;;21.50;64.19;100988.27;180879;1267;43762;-62
2023/05/25 11:31:35;;;;;;;7.70;4.40;;;;;;;21.35;65.16;100984.80;181007;1267;43673;-63
2023/05/25 11:35:47;;;;;;;5.10;3.70;;;;;;;21.15;63.82;100977.94;180990;1267;43724;-63
2023/05/25 11:39:51;;;;;;;4.50;3.90;;;;;;;21.23;64.78;100973.77;180957;1266;43695;-64
2023/05/25 11:43:55;;;;;;;6.20;4.60;;;;;;;21.34;62.14;100971.58;180976;1267;59605;-63
2023/05/25 11:47:58;;;;;;;6.40;4.40;;;;;;;21.40;63.36;100972.90;180955;1267;43462;-63
2023/05/25 11:52:07;;;;;;;11.10;5.50;;;;;;;21.49;65.38;100968.42;180991;1266;43833;-63
2023/05/25 11:56:12;;;;;;;8.20;4.70;;;;;;;21.55;65.55;100968.66;181057;1266;43524;-63
2023/05/25 12:00:41;;;;;;;5.50;4.10;;;;;;;21.61;62.44;100972.07;180510;1272;43125;-64
2023/05/25 12:05:00;;;;;;;5.50;3.60;;;;;;;21.67;63.10;100965.34;180532;1273;57231;-63
2023/05/25 12:09:10;;;;;;;5.80;4.10;;;;;;;21.61;62.68;100963.05;180265;1272;43631;-63
2023/05/25 12:13:13;;;;;;;8.00;5.10;;;;;;;21.57;65.08;100957.95;180486;1271;43766;-63
2023/05/25 12:17:20;;;;;;;13.00;4.20;;;;;;;21.74;63.58;100954.39;180700;1268;43549;-63
2023/05/25 12:21:23;;;;;;;5.30;4.50;;;;;;;21.75;61.73;100948.27;180841;1267;43018;-64
2023/05/25 12:25:26;;;;;;;5.30;4.20;;;;;;;21.84;63.61;100941.25;180952;1267;58034;-64
2023/05/25 12:29:51;;;;;;;9.20;4.80;;;;;;;22.06;61.55;100938.58;181030;1266;43072;-63
2023/05/25 12:34:08;;;;;;;6.00;4.30;;;;;;;22.13;60.99;100933.86;181015;1267;42996;-63
2023/05/25 12:38:20;;;;;;;4.10;3.40;;;;;;;21.92;61.04;100934.04;180911;1267;43167;-63
2023/05/25 12:42:29;;;;;;;8.30;3.50;;;;;;;21.90;60.78;100939.68;180998;1266;43718;-63
2023/05/25 12:46:32;;;;;;;4.00;3.60;;;;;;;21.86;59.28;100931.23;180943;1266;59180;-63
2023/05/25 12:51:10;;;;;;;4.70;3.80;;;;;;;22.04;58.91;100926.73;181062;1267;43726;-61
2023/05/25 12:55:41;;;;;;;7.60;4.20;;;;;;;22.05;61.77;100919.98;180920;1268;43699;-63
2023/05/25 12:59:45;;;;;;;4.50;3.80;;;;;;;22.10;60.94;100915.93;180880;1267;43105;-63
2023/05/25 13:03:48;;;;;;;7.30;3.80;;;;;;;22.28;60.66;100906.16;180960;1267;43777;-63
2023/05/25 13:07:53;;;;;;;6.40;4.20;;;;;;;22.37;61.13;100898.90;180950;1267;60040;-63
2023/05/25 13:11:57;;;;;;;9.10;4.20;;;;;;;22.50;60.00;100896.48;180890;1267;43842;-63
2023/05/25 13:16:00;;;;;;;7.60;4.20;;;;;;;22.52;58.75;100895.52;180930;1267;43164;-61
2023/05/25 13:20:03;;;;;;;8.30;4.30;;;;;;;22.66;58.65;100890.60;180920;1267;43237;-62
2023/05/25 13:24:06;;;;;;;7.90;4.30;;;;;;;22.68;58.53;100891.98;180969;1266;43827;-61
2023/05/25 13:28:14;;;;;;;5.20;3.40;;;;;;;22.69;59.39;100890.75;180980;1267;58037;-61
2023/05/25 13:32:18;;;;;;;5.20;3.20;;;;;;;22.80;60.26;100882.14;180999;1267;43799;-61
2023/05/25 13:36:19;;;;;;;5.80;4.90;;;;;;;22.89;59.04;100873.98;180990;1267;43180;-61
2023/05/25 13:40:23;;;;;;;5.30;3.80;;;;;;;23.01;58.96;100874.65;180981;1267;43637;-61
2023/05/25 13:44:25;;;;;;;5.70;3.40;;;;;;;23.10;57.83;100868.50;180970;1267;43043;-61
2023/05/25 13:48:28;;;;;;;5.20;3.80;;;;;;;23.20;57.93;100871.05;180927;1267;58051;-62
2023/05/25 13:52:35;;;;;;;9.70;4.80;;;;;;;23.26;57.73;100873.67;180958;1267;43198;-62
2023/05/25 13:56:38;;;;;;;4.70;3.90;;;;;;;23.33;58.66;100873.23;180992;1267;43647;-60
2023/05/25 14:01:19;;;;;;;6.20;4.60;;;;;;;23.42;58.60;100867.38;181054;1268;43365;-61
2023/05/25 14:05:24;;;;;;;8.30;4.50;;;;;;;23.30;57.10;100862.30;180673;1267;43853;-91
2023/05/25 14:09:28;;;;;;;6.00;3.90;;;;;;;23.29;56.82;100863.42;180533;1265;61187;-91
2023/05/25 14:13:35;;;;;;;5.30;4.00;;;;;;;23.41;57.71;100855.77;180552;1267;44097;-91
2023/05/25 14:17:40;;;;;;;4.50;3.40;;;;;;;23.48;58.11;100849.92;180419;1267;43913;-88
2023/05/25 14:21:43;;;;;;;19.10;4.70;;;;;;;23.65;55.88;100845.40;180543;1267;44404;-87
2023/05/25 14:25:48;;;;;;;3.90;3.50;;;;;;;23.74;56.52;100848.39;180403;1267;43832;-88
2023/05/25 14:29:51;;;;;;;5.80;3.70;;;;;;;23.77;57.31;100845.27;180510;1267;59224;-88
2023/05/25 14:33:55;;;;;;;5.50;4.30;;;;;;;23.84;57.64;100840.30;180538;1267;43773;-89
2023/05/25 14:37:58;;;;;;;4.50;4.00;;;;;;;23.94;56.96;100839.67;180601;1267;44032;-88
2023/05/25 14:42:04;;;;;;;4.50;4.00;;;;;;;24.01;56.77;100841.86;180586;1267;43871;-88
2023/05/25 14:46:09;;;;;;;6.10;4.70;;;;;;;24.03;57.26;100835.27;180574;1266;43784;-88
2023/05/25 14:50:12;;;;;;;4.80;4.20;;;;;;;24.07;56.17;100829.83;180381;1267;59686;-88
2023/05/25 14:54:16;;;;;;;6.10;4.70;;;;;;;24.05;57.33;100830.19;180683;1266;43837;-88
2023/05/25 14:58:19;;;;;;;6.70;3.80;;;;;;;23.91;57.72;100836.61;180502;1267;43947;-88
2023/05/25 15:02:23;;;;;;;6.70;4.50;;;;;;;23.76;58.98;100836.86;180415;1267;44098;-88
2023/05/25 15:06:26;;;;;;;6.60;4.50;;;;;;;23.73;57.34;100831.66;180456;1266;44013;-88
2023/05/25 15:10:29;;;;;;;5.50;4.90;;;;;;;23.72;58.22;100831.79;180456;1266;58055;-88
2023/05/25 15:14:34;;;;;;;7.60;4.70;;;;;;;23.63;59.21;100830.06;180499;1267;43614;-88
2023/05/25 15:18:37;;;;;;;8.30;4.50;;;;;;;23.50;61.19;100830.48;180677;1266;43912;-89
2023/05/25 15:22:40;;;;;;;9.40;5.80;;;;;;;23.42;61.47;100830.25;180412;1267;44447;-88
2023/05/25 15:26:44;;;;;;;4.50;4.10;;;;;;;23.20;61.21;100827.61;180552;1266;44135;-89
2023/05/25 15:30:47;;;;;;;8.50;5.50;;;;;;;23.05;63.34;100824.80;180470;1266;59642;-89
2023/05/25 15:34:50;;;;;;;7.40;4.90;;;;;;;22.81;64.67;100819.70;180499;1267;43858;-88
2023/05/25 15:38:54;;;;;;;5.80;4.60;;;;;;;22.77;65.34;100820.16;180645;1266;43812;-89
2023/05/25 15:42:58;;;;;;;7.00;4.20;;;;;;;22.79;61.87;100819.85;180359;1266;43821;-89
2023/05/25 15:47:01;;;;;;;8.00;5.00;;;;;;;22.80;61.98;100818.79;180432;1266;44052;-88
2023/05/25 15:51:04;;;;;;;8.40;4.50;;;;;;;22.73;62.16;100823.95;180349;1267;59438;-88
2023/05/25 15:55:08;;;;;;;9.10;4.70;;;;;;;22.61;61.75;100825.52;180545;1266;43831;-88
2023/05/25 15:59:11;;;;;;;8.10;4.40;;;;;;;22.62;63.29;100817.11;180473;1267;43832;-88
2023/05/25 16:03:15;;;;;;;5.50;4.30;;;;;;;22.63;62.04;100818.38;180415;1266;44054;-87
2023/05/25 16:07:18;;;;;;;12.00;5.00;;;;;;;22.67;61.33;100809.67;180593;1266;43849;-89
2023/05/25 16:11:22;;;;;;;8.10;4.50;;;;;;;22.77;61.24;100811.27;180459;1268;58229;-88
2023/05/25 16:15:26;;;;;;;5.80;4.10;;;;;;;22.80;61.41;100806.56;180364;1267;44348;-89
2023/05/25 16:19:29;;;;;;;6.40;4.00;;;;;;;22.68;61.48;100814.58;180409;1266;43797;-88
2023/05/25 16:23:33;;;;;;;4.90;4.40;;;;;;;22.54;64.13;100816.92;180501;1266;44023;-88
2023/05/25 16:27:37;;;;;;;8.10;4.20;;;;;;;22.42;64.11;100813.57;180540;1267;43886;-89
2023/05/25 16:31:40;;;;;;;5.20;4.70;;;;;;;22.30;64.75;100807.67;180358;1267;58190;-88
2023/05/25 16:35:44;;;;;;;5.10;4.20;;;;;;;22.19;64.92;100807.59;180356;1267;44000;-89
2023/05/25 16:39:47;;;;;;;5.80;4.70;;;;;;;22.03;64.69;100804.11;180477;1266;43745;-89
2023/05/25 16:43:51;;;;;;;7.00;4.80;;;;;;;21.93;65.91;100806.02;180319;1267;43805;-88
2023/05/25 16:47:54;;;;;;;4.60;4.00;;;;;;;21.81;66.98;100804.07;180374;1267;43767;-88
2023/05/25 16:51:58;;;;;;;6.20;4.80;;;;;;;21.71;65.91;100805.10;180335;1267;60872;-89
2023/05/25 16:56:01;;;;;;;7.70;4.10;;;;;;;21.59;66.08;100804.15;180182;1267;203232;-89
2023/05/25 17:00:05;;;;;;;6.60;4.50;;;;;;;21.51;66.06;100800.63;180261;1267;44063;-88
2023/05/25 17:04:09;;;;;;;11.10;5.30;;;;;;;21.45;66.90;100806.20;180408;1267;43874;-91
2023/05/25 17:08:12;;;;;;;5.10;3.70;;;;;;;21.40;68.89;100805.13;180118;1267;43762;-89
2023/05/25 17:12:16;;;;;;;7.60;4.80;;;;;;;21.39;69.34;100802.60;180391;1267;58692;-87
2023/05/25 17:16:20;;;;;;;6.10;3.50;;;;;;;21.39;69.19;100801.48;180447;1267;43898;-87
2023/05/25 17:20:23;;;;;;;8.60;4.50;;;;;;;21.34;68.88;100795.42;180383;1266;43952;-88
2023/05/25 17:24:26;;;;;;;3.90;3.50;;;;;;;21.30;69.34;100803.97;180301;1267;43788;-88
2023/05/25 17:28:31;;;;;;;8.30;5.10;;;;;;;21.29;69.86;100800.16;180484;1268;43953;-88
2023/05/25 17:32:37;;;;;;;7.50;5.10;;;;;;;21.28;68.90;100806.98;180458;1267;57959;-88
2023/05/25 17:36:41;;;;;;;10.30;6.50;;;;;;;21.27;69.28;100808.67;180524;1266;44037;-88
2023/05/25 17:40:44;;;;;;;7.50;4.20;;;;;;;21.26;70.20;100808.80;180366;1267;47579;-89
2023/05/25 17:44:50;;;;;;;6.50;4.40;;;;;;;21.25;73.11;100808.49;180388;1267;43879;-88
2023/05/25 17:48:53;;;;;;;7.90;4.90;;;;;;;21.22;72.23;100808.52;180304;1267;43768;-88
2023/05/25 17:52:57;;;;;;;12.40;6.00;;;;;;;21.17;71.67;100808.47;180229;1266;59331;-88
2023/05/25 17:57:03;;;;;;;10.00;5.20;;;;;;;21.09;70.21;100807.68;180237;1266;43761;-88
2023/05/25 18:01:07;;;;;;;6.50;4.70;;;;;;;20.99;69.61;100809.60;180317;1266;43972;-90
2023/05/25 18:05:11;;;;;;;5.90;4.90;;;;;;;20.85;68.61;100812.30;180203;1266;43164;-89
2023/05/25 18:09:15;;;;;;;6.10;4.20;;;;;;;20.71;68.52;100809.81;180434;1266;43908;-89
2023/05/25 18:13:18;;;;;;;8.80;4.50;;;;;;;20.57;68.54;100812.55;180326;1268;59235;-89
2023/05/25 18:17:22;;;;;;;8.80;5.20;;;;;;;20.42;68.19;100811.67;180392;1267;43847;-88
2023/05/25 18:21:25;;;;;;;5.80;4.60;;;;;;;20.33;68.94;100816.17;180473;1267;43961;-90
2023/05/25 18:25:29;;;;;;;5.40;4.00;;;;;;;20.21;69.12;100813.53;180615;1266;43170;-91
2023/05/25 18:29:32;;;;;;;6.20;3.80;;;;;;;20.11;69.58;100815.79;180329;1266;43869;-91
2023/05/25 18:33:36;;;;;;;10.40;5.60;;;;;;;20.00;70.57;100815.86;180255;1268;59570;-90
2023/05/25 18:37:40;;;;;;;8.60;4.90;;;;;;;19.88;70.61;100818.68;180269;1267;44098;-88
2023/05/25 18:41:43;;;;;;;5.50;3.90;;;;;;;19.73;71.81;100823.54;180202;1267;43875;-88
2023/05/25 18:45:46;;;;;;;11.70;4.00;;;;;;;19.55;74.76;100827.60;180350;1268;44502;-88
2023/05/25 18:49:50;;;;;;;4.90;3.80;;;;;;;19.27;75.28;100829.73;180133;1267;43780;-88
2023/05/25 18:53:53;;;;;;;9.60;4.50;;;;;;;19.02;76.65;100834.65;180378;1268;58293;-89
2023/05/25 18:57:57;;;;;;;6.20;4.10;;;;;;;18.84;77.20;100840.08;180404;1268;45485;-88
2023/05/25 19:02:00;;;;;;;8.50;5.40;;;;;;;18.66;77.53;100845.85;180476;1267;44222;-88
2023/05/25 19:06:04;;;;;;;6.20;3.80;;;;;;;18.45;78.00;100853.94;180186;1267;43733;-88
2023/05/25 19:10:08;;;;;;;9.70;4.60;;;;;;;18.24;78.86;100852.98;180293;1267;43853;-89
2023/05/25 19:14:11;;;;;;;5.80;2.90;;;;;;;18.01;79.57;100853.65;180270;1267;58332;-88
2023/05/25 19:18:15;;;;;;;4.70;4.10;;;;;;;17.80;80.17;100853.13;180330;1267;43919;-89
2023/05/25 19:22:19;;;;;;;4.90;4.40;;;;;;;17.61;81.63;100857.06;180350;1268;43714;-89
2023/05/25 19:26:23;;;;;;;6.00;5.00;;;;;;;17.48;81.52;100861.27;180264;1267;44023;-89
2023/05/25 19:30:26;;;;;;;6.30;5.10;;;;;;;17.36;82.61;100863.56;180167;1266;43752;-90
2023/05/25 19:34:30;;;;;;;7.70;5.30;;;;;;;17.19;82.21;100871.36;180276;1268;59669;-90
2023/05/25 19:38:34;;;;;;;6.30;5.10;;;;;;;16.99;82.81;100872.02;180471;1267;43867;-89
2023/05/25 19:42:43;;;;;;;6.80;5.50;;;;;;;16.75;83.50;100874.96;180144;1267;43961;-88
2023/05/25 19:46:47;;;;;;;6.50;5.40;;;;;;;16.52;84.32;100878.77;180167;1266;43792;-89
2023/05/25 19:50:51;;;;;;;10.10;6.50;;;;;;;16.32;86.43;100878.05;180160;1270;44299;-90
2023/05/25 19:54:55;;;;;;;7.90;6.00;;;;;;;16.12;86.88;100875.49;180059;1267;59682;-89